Date,TemperatureHighF,TemperatureAvgF,TemperatureLowF,DewpointHighF,DewpointAvgF,DewpointLowF,HumidityHigh,HumidityAvg,HumidityLow,PressureMaxIn,PressureMinIn,WindSpeedMaxMPH,WindSpeedAvgMPH,GustSpeedMaxMPH,PrecipitationSumIn
2013-1-1,50,45,40,50,40,29,99,84,64,30.39,30.22,8,2,8,0.27
2013-1-2,52,50,46,50,45,41,99,83,66,30.44,30.18,5,1,5,0.08
2013-1-3,52,52,52,41,41,41,66,66,66,30.55,30.39,2,2,2,0.08
2013-1-4,52,52,52,41,41,41,66,66,66,30.60,30.48,2,2,2,0.08
2013-1-5,56,50,45,41,32,20,66,51,27,30.66,30.49,5,2,5,0.08
2013-1-6,59,47,42,42,36,26,89,67,45,30.51,30.32,32,7,32,0.00
2013-1-7,42,42,42,31,31,31,67,67,67,30.70,30.48,0,0,0,0.00
2013-1-8,45,42,41,41,33,31,97,71,67,30.73,30.63,2,0,2,0.00
2013-1-9,68,52,39,53,47,38,99,85,56,30.72,30.64,4,0,4,0.00
2013-1-10,66,58,49,56,49,40,99,74,56,30.78,30.64,5,1,5,0.00
2013-1-11,56,49,47,51,48,47,99,98,73,30.65,30.44,9,1,9,0.09
2013-1-12,72,59,48,65,57,48,99,93,76,30.45,30.37,4,0,4,0.01
2013-1-13,75,65,58,64,61,58,99,89,65,30.42,30.32,14,2,14,0.00
2013-1-14,65,63,61,65,62,60,99,96,90,30.40,30.34,24,1,24,0.20
2013-1-15,62,48,42,61,48,42,99,99,97,30.47,30.34,6,1,6,0.09
2013-1-16,51,46,42,50,45,42,99,99,98,30.35,30.25,5,1,5,0.12
2013-1-17,51,46,34,51,45,34,99,99,97,30.45,30.10,11,2,11,1.49
2013-1-18,54,41,0,36,27,20,98,61,28,30.77,30.44,6,2,6,0.01
2013-1-19,65,43,27,32,27,19,95,58,21,30.75,30.43,10,2,10,0.00
2013-1-20,71,51,37,35,31,26,77,49,22,30.43,30.29,10,2,10,0.00
2013-1-21,68,47,32,46,28,16,99,55,20,30.35,30.19,14,2,14,0.00
2013-1-22,51,38,30,20,8,-2,44,28,20,30.52,30.28,11,3,11,0.00
2013-1-23,53,36,23,30,11,-5,65,37,21,30.62,30.32,12,2,12,0.00
2013-1-24,52,39,28,36,16,-1,86,44,21,30.75,30.24,10,2,10,0.00
2013-1-25,28,26,22,25,13,1,90,61,30,30.75,30.38,64,2,64,0.00
2013-1-26,57,36,28,38,31,25,99,85,39,30.63,30.34,4,0,4,0.01
2013-1-27,51,38,26,31,27,20,98,66,42,30.82,30.63,5,1,5,0.00
2013-1-28,54,43,36,48,38,29,96,80,66,30.74,30.52,11,2,11,0.01
2013-1-29,77,60,44,60,53,43,99,80,53,30.52,30.32,13,2,13,0.00
2013-1-30,75,67,53,64,62,51,99,85,62,30.32,29.71,22,6,22,0.86
2013-1-31,55,46,35,51,28,18,92,54,23,30.30,29.81,20,5,21,0.04
2013-2-1,48,39,28,30,13,0,64,36,20,30.63,30.18,18,5,18,0.00
2013-2-2,51,37,24,37,13,2,83,39,21,31.33,30.31,19,4,19,0.00
2013-2-3,59,45,36,37,29,21,93,58,26,30.31,30.14,16,4,16,0.00
2013-2-4,54,42,30,28,24,20,74,51,27,30.40,30.26,12,2,12,0.00
2013-2-5,72,50,39,38,33,28,84,56,26,30.26,30.16,9,2,9,0.00
2013-2-6,75,50,36,47,30,18,99,57,15,30.51,30.25,110,1,110,0.00
2013-2-7,44,41,38,41,33,-11,99,77,10,30.56,30.27,7,1,7,0.47
2013-2-8,64,48,38,48,39,28,99,73,41,30.38,30.14,11,3,11,0.02
2013-2-9,70,54,32,30,23,15,83,37,13,30.60,30.37,7,1,7,0.00
2013-2-10,70,70,70,19,19,19,14,14,14,30.71,30.43,0,0,0,0.00
2013-2-11,70,52,45,58,50,19,99,96,14,30.43,30.23,13,3,13,0.24
2013-2-12,65,52,46,52,37,22,99,61,20,30.38,30.17,8,1,8,0.00
2013-2-13,52,46,43,48,44,34,99,91,71,30.22,29.93,11,2,11,0.05
2013-2-14,58,44,31,43,34,30,99,70,36,30.33,30.14,12,1,12,0.00
2013-2-15,70,50,32,51,34,24,99,62,20,30.36,30.20,11,2,11,0.00
2013-2-16,47,37,31,37,30,20,99,76,61,30.26,30.10,9,1,9,0.00
2013-2-17,66,36,26,38,11,2,67,38,20,30.42,29.41,12,3,12,0.05
2013-2-18,62,42,23,27,19,10,72,44,21,30.16,30.00,13,2,13,0.00
2013-2-19,52,42,37,46,35,19,99,78,37,30.01,29.69,14,3,14,0.22
2013-2-20,60,46,36,21,14,7,45,28,19,29.92,29.81,12,3,12,0.00
2013-2-21,67,49,27,20,16,8,62,29,16,30.01,29.90,4,0,4,0.00
2013-2-22,41,38,37,39,37,36,99,98,86,30.08,29.88,2,0,2,0.41
2013-2-23,44,40,36,44,40,35,99,98,97,29.91,29.60,4,1,4,0.30
2013-2-24,74,60,42,49,36,20,99,54,14,29.80,29.60,7,2,7,0.00
2013-2-25,74,51,38,28,27,22,65,46,18,30.01,29.79,6,2,6,0.73
2013-2-26,42,38,33,41,36,25,99,93,59,29.89,29.40,14,2,14,0.97
2013-2-27,64,50,39,46,39,36,99,71,36,29.61,29.46,12,3,12,0.01
2013-2-28,56,45,37,37,30,23,85,57,32,29.70,29.52,11,3,11,0.00
2013-3-1,51,42,33,33,30,26,82,62,44,29.74,29.67,11,2,11,0.00
2013-3-2,51,41,32,37,30,21,82,66,52,29.75,29.64,49,2,49,0.00
2013-3-3,53,39,28,22,17,14,64,44,23,29.81,29.69,9,3,9,0.00
2013-3-4,66,43,30,49,24,13,99,52,16,30.08,29.79,8,1,8,0.99
2013-3-5,64,46,43,46,36,18,99,71,17,30.30,29.51,8,2,8,0.37
2013-3-6,52,42,35,42,28,21,99,59,34,30.38,29.88,16,4,16,0.02
2013-3-7,64,44,32,32,27,23,81,54,22,30.54,30.38,10,2,10,0.00
2013-3-8,67,46,31,28,24,19,76,46,16,30.59,30.47,10,2,10,0.00
2013-3-9,72,50,32,36,29,22,77,49,16,30.61,30.50,22,2,22,0.00
2013-3-10,68,55,39,39,35,32,85,51,26,30.56,30.43,7,2,7,0.00
2013-3-11,72,57,43,57,41,24,99,56,33,30.46,30.13,14,2,14,0.08
2013-3-12,74,61,47,61,48,26,99,70,20,30.26,30.02,14,3,14,0.54
2013-3-13,62,50,38,36,28,21,88,47,22,30.42,30.25,8,4,8,0.00
2013-3-14,66,44,0,44,18,12,98,35,20,30.42,29.42,11,3,11,0.65
2013-3-15,71,50,31,42,29,19,76,47,25,29.94,29.65,13,2,13,0.00
2013-3-16,82,68,55,47,44,41,63,45,26,29.66,29.47,20,5,20,0.00
2013-3-17,79,61,45,56,46,41,85,60,34,29.87,29.61,10,2,10,0.00
2013-3-18,45,42,39,43,41,39,99,97,85,29.90,29.61,8,2,8,0.38
2013-3-19,71,53,40,50,31,15,99,56,13,29.81,29.59,14,3,14,0.01
2013-3-20,66,52,44,29,15,7,48,23,16,29.87,29.54,14,2,14,0.00
2013-3-21,53,42,32,30,13,2,59,31,21,29.73,29.54,15,4,15,0.00
2013-3-22,59,41,25,23,15,9,58,37,21,29.84,29.71,30,2,30,0.00
2013-3-23,68,48,38,44,35,23,89,63,38,29.81,29.66,6,1,6,0.00
2013-3-24,46,41,38,44,40,38,99,98,89,29.69,29.31,8,1,8,0.46
2013-3-25,52,42,37,42,30,17,99,68,27,29.64,29.31,20,3,20,0.06
2013-3-26,50,42,34,28,26,24,70,54,41,29.92,29.63,11,3,11,0.00
2013-3-27,60,45,36,29,24,15,70,46,22,30.00,29.91,10,3,10,0.00
2013-3-28,66,46,29,31,22,15,83,43,17,30.05,29.94,8,1,8,0.00
2013-3-29,70,50,30,38,28,19,99,50,15,30.09,29.93,10,1,10,0.00
2013-3-30,71,53,46,48,42,37,99,69,34,29.98,29.82,4,1,5,0.02
2013-3-31,71,58,50,59,53,46,99,85,55,29.81,29.56,17,3,17,0.34
2013-4-1,78,62,51,57,46,35,99,63,23,29.72,29.60,9,2,9,0.02
2013-4-2,72,56,39,41,30,16,85,43,14,29.92,29.72,8,1,8,0.00
2013-4-3,66,54,43,29,20,11,44,26,17,30.03,29.88,8,2,8,0.00
2013-4-4,50,42,36,40,30,13,99,70,26,30.04,29.73,10,2,10,0.69
2013-4-5,78,53,36,49,41,30,99,71,23,29.81,29.66,6,1,6,0.01
2013-4-6,78,57,39,45,36,26,99,55,17,29.99,29.81,8,2,8,0.02
2013-4-7,78,60,42,51,44,34,83,59,31,30.02,29.85,12,2,12,0.00
2013-4-8,82,67,55,57,54,50,95,65,35,29.93,29.81,12,2,12,0.00
2013-4-9,88,73,56,62,56,52,95,60,34,29.96,29.84,10,2,10,0.00
2013-4-10,91,76,62,62,59,57,92,60,33,29.87,29.71,10,3,10,0.00
2013-4-11,85,72,63,69,62,58,99,74,46,29.75,29.51,53,4,53,0.08
2013-4-12,78,71,63,69,61,38,99,75,35,29.59,29.40,15,4,15,0.72
2013-4-13,88,64,45,50,42,35,97,51,16,29.78,29.59,4,1,4,0.00
2013-4-14,75,63,48,57,45,42,99,55,35,29.86,29.76,38,1,38,0.24
2013-4-15,75,62,57,65,60,55,99,90,66,29.96,29.73,5,0,5,0.14
2013-4-16,72,66,58,64,61,58,99,85,71,30.06,29.93,2,0,2,0.00
2013-4-17,69,64,58,64,59,36,93,85,34,30.06,29.86,4,2,4,0.00
2013-4-18,84,71,64,64,62,56,95,75,44,30.66,29.78,9,1,9,0.00
2013-4-19,80,69,57,68,64,54,98,86,62,29.78,29.52,19,5,19,0.21
2013-4-20,77,57,46,55,36,24,95,49,17,30.05,29.69,9,1,9,0.00
2013-4-21,66,55,46,42,40,33,81,58,35,30.23,29.78,7,0,7,0.00
2013-4-22,74,55,41,41,34,21,87,51,15,29.95,29.74,9,1,9,0.00
2013-4-23,80,61,50,55,48,37,91,63,37,29.79,29.62,7,1,7,0.00
2013-4-24,77,64,54,59,56,52,99,77,49,29.66,29.51,14,4,14,0.00
2013-4-25,85,64,52,60,43,29,93,53,15,29.80,29.55,8,1,8,0.00
2013-4-26,80,62,48,47,38,24,70,44,17,29.95,29.80,7,0,7,0.00
2013-4-27,66,51,35,58,45,33,99,83,34,29.93,29.74,8,0,8,0.02
2013-4-28,57,56,55,57,56,54,99,99,97,29.84,29.64,5,0,5,1.52
2013-4-29,82,64,56,67,59,55,99,88,47,29.65,29.54,7,0,7,0.18
2013-4-30,83,65,58,64,60,56,99,86,48,29.77,29.58,5,0,5,0.00
2013-5-1,69,59,54,60,56,53,99,92,69,29.88,29.76,9,1,9,0.00
2013-5-2,64,59,56,59,57,56,99,94,81,29.99,29.91,4,0,4,0.07
2013-5-3,71,62,54,57,54,52,97,77,56,29.92,29.81,8,1,8,0.00
2013-5-4,66,50,35,53,39,28,99,70,31,30.16,29.90,12,1,12,0.00
2013-5-5,58,54,51,58,52,48,99,93,84,29.94,29.76,11,2,11,0.46
2013-5-6,77,64,56,64,56,44,99,77,36,29.79,29.71,12,2,12,0.89
2013-5-7,77,60,50,56,51,44,99,76,35,29.84,29.75,24,1,24,0.12
2013-5-8,84,64,52,62,56,51,99,78,43,29.91,29.81,8,1,8,0.01
2013-5-9,90,69,53,61,57,52,99,70,31,29.98,29.89,8,1,8,0.00
2013-5-10,86,72,57,66,61,56,99,71,43,29.97,29.85,14,2,14,0.00
2013-5-11,84,73,63,68,63,58,96,72,46,29.86,29.70,16,3,16,0.01
2013-5-12,81,67,57,64,49,34,97,57,22,29.94,29.74,8,1,8,0.00
2013-5-13,77,61,47,42,35,21,75,42,15,30.07,29.93,8,1,8,0.00
2013-5-14,79,62,43,48,40,35,89,50,23,30.15,29.96,11,2,11,0.00
2013-5-15,93,75,59,63,58,48,85,57,36,29.97,29.83,50,4,50,0.00
2013-5-16,88,76,61,66,61,57,94,64,37,29.92,29.83,7,1,7,0.00
2013-5-17,90,77,63,70,64,60,99,68,42,29.99,29.89,9,1,9,0.00
2013-5-18,74,70,64,68,65,61,99,85,70,30.04,29.95,9,0,9,0.01
2013-5-19,84,70,66,72,68,65,99,92,60,30.02,29.93,7,1,7,0.33
2013-5-20,91,74,67,73,69,66,99,85,46,30.01,29.91,5,0,5,0.04
2013-5-21,94,76,66,75,68,62,99,79,46,29.95,29.83,8,1,8,0.00
2013-5-22,91,76,67,70,67,64,99,77,44,29.91,29.78,15,2,15,0.00
2013-5-23,87,72,64,70,67,64,99,86,52,29.88,29.72,10,1,10,0.21
2013-5-24,80,68,59,64,50,32,99,59,18,30.09,29.76,14,2,14,0.01
2013-5-25,59,55,53,43,40,38,69,58,45,30.11,30.08,4,0,4,0.00
2013-5-26,83,67,35,54,47,34,99,52,27,35.02,29.58,8,1,8,0.00
2013-5-27,88,70,54,60,56,53,99,65,34,29.91,29.54,10,2,10,0.00
2013-5-28,91,76,65,66,63,58,96,68,40,29.91,29.54,14,2,14,0.00
2013-5-29,91,76,66,66,63,57,88,65,38,29.93,29.56,11,2,11,0.00
2013-5-30,70,67,62,64,63,62,98,88,81,29.91,29.85,4,0,4,0.00
2013-5-31,93,69,35,68,54,33,99,63,34,29.96,29.80,11,2,11,0.00
2013-6-1,91,79,70,70,67,63,93,68,41,29.84,29.71,17,3,17,0.00
2013-6-2,85,75,69,72,68,66,99,80,59,29.75,29.61,12,3,12,0.11
2013-6-3,89,75,68,73,69,66,99,84,53,29.66,29.55,8,1,8,0.11
2013-6-4,91,76,40,70,63,36,99,67,34,30.17,29.92,7,1,7,0.01
2013-6-5,86,73,67,73,68,66,99,87,62,30.02,29.89,8,1,8,0.07
2013-6-6,79,72,68,74,71,68,99,96,81,30.09,29.72,8,1,8,0.83
2013-6-7,88,72,68,78,70,66,99,92,61,29.93,29.73,10,1,10,0.59
2013-6-8,90,76,65,71,68,65,99,80,46,30.16,29.90,4,1,8,0.11
2013-6-9,92,76,67,74,70,66,99,83,45,30.22,30.11,10,1,10,0.07
2013-6-10,85,73,0,100,68,36,99,85,1,30.21,29.78,15,3,15,0.08
2013-6-11,96,79,69,72,67,62,99,73,37,29.92,29.92,11,2,11,0.01
2013-6-12,97,80,66,78,71,65,99,76,45,29.92,29.92,11,2,11,0.00
2013-6-13,96,81,67,76,71,64,99,76,43,29.92,29.92,17,3,17,0.33
2013-6-14,75,69,66,68,61,20,94,76,60,29.92,29.92,8,1,8,0.00
2013-6-15,74,47,35,100,35,26,99,67,1,30.12,29.92,5,0,5,19.55
2013-6-16,90,78,68,69,66,63,85,68,43,30.00,29.88,10,3,10,0.00
2013-6-17,76,60,35,100,55,28,99,85,1,30.22,29.88,8,1,8,0.02
2013-6-18,84,72,35,74,67,31,99,86,37,30.27,29.74,14,3,14,0.17
2013-6-19,88,76,62,100,67,36,99,74,1,30.28,29.92,4,0,4,0.18
2013-6-20,92,76,66,70,67,63,99,77,42,30.25,30.13,10,0,10,0.00
2013-6-21,94,76,62,67,64,61,97,71,38,30.28,30.19,6,1,6,0.00
2013-6-22,97,77,64,71,66,60,94,72,37,30.24,30.13,7,0,7,0.00
2013-6-23,95,80,68,74,70,66,99,75,40,30.23,30.14,8,1,8,0.00
2013-6-24,92,80,72,75,72,70,97,79,50,30.23,30.11,11,2,11,0.00
2013-6-25,98,82,73,76,72,69,96,75,43,30.16,30.02,11,3,11,0.00
2013-6-26,98,78,71,76,71,65,98,82,43,30.06,29.93,10,2,10,0.06
2013-6-27,73,70,33,100,65,-40,99,86,1,30.39,29.89,5,1,5,0.00
2013-6-28,97,79,70,78,72,69,99,82,43,29.90,29.73,22,1,22,3.63
2013-6-29,92,79,70,76,71,66,99,79,46,29.85,29.76,9,2,9,0.01
2013-6-30,90,76,67,75,71,67,99,86,56,29.99,29.84,11,1,11,0.45
2013-7-1,90,75,67,75,70,66,99,86,56,30.11,29.97,8,1,8,0.08
2013-7-2,82,74,71,74,72,71,98,94,74,30.27,30.10,8,1,8,0.34
2013-7-3,83,76,72,76,73,71,99,93,78,30.34,30.25,5,0,5,0.06
2013-7-4,93,78,70,78,73,70,99,88,48,30.38,30.27,14,1,14,1.06
2013-7-5,88,77,72,79,74,72,99,91,61,30.38,30.31,9,1,9,0.17
2013-7-6,93,77,71,76,73,70,99,87,51,30.38,30.24,11,1,11,0.12
2013-7-7,91,79,72,79,74,71,99,84,55,30.32,30.19,11,2,11,0.04
2013-7-8,95,80,72,78,73,69,99,81,48,30.32,30.23,8,1,8,0.14
2013-7-9,98,82,72,76,74,69,99,79,41,30.30,30.18,8,2,8,0.06
2013-7-10,93,79,72,75,73,71,99,83,53,30.26,30.08,10,2,10,0.00
2013-7-11,80,75,69,76,73,69,99,95,86,30.11,30.01,7,1,7,0.43
2013-7-12,89,76,69,75,71,68,99,87,55,30.15,30.01,6,1,6,0.01
2013-7-13,89,74,69,76,71,68,99,89,61,30.25,30.14,6,1,6,0.11
2013-7-14,94,79,72,78,73,70,99,84,48,30.41,30.23,11,1,11,0.31
2013-7-15,98,80,70,76,72,69,99,78,42,30.46,30.37,4,0,4,0.00
2013-7-16,102,83,71,77,72,67,99,75,36,30.44,30.33,4,0,4,0.00
2013-7-17,99,83,74,79,75,67,96,79,50,30.38,30.27,7,0,7,0.00
2013-7-18,98,82,71,79,74,71,99,80,44,29.88,29.77,5,1,5,0.01
2013-7-19,95,83,75,77,75,73,98,78,50,29.83,29.70,9,2,9,0.00
2013-7-20,90,79,73,76,74,72,98,88,62,29.76,29.65,7,2,7,0.05
2013-7-21,96,76,72,76,73,71,99,91,49,29.73,29.64,4,0,4,0.00
2013-7-22,92,79,71,75,73,70,99,83,55,29.72,29.56,11,2,11,0.01
2013-7-23,97,82,72,75,72,66,99,74,37,29.58,29.49,9,2,9,0.05
2013-7-24,102,83,71,75,72,69,98,75,39,29.59,29.47,7,1,7,0.31
2013-7-25,94,77,68,72,70,67,99,80,46,30.35,29.56,4,1,4,0.09
2013-7-26,95,78,68,71,69,67,99,76,44,29.84,29.73,4,1,4,0.00
2013-7-27,80,73,68,75,71,67,99,94,79,29.76,29.65,11,1,11,1.42
2013-7-28,94,77,69,74,71,68,99,83,47,29.74,29.65,15,2,15,0.39
2013-7-29,97,78,66,72,69,64,99,77,36,29.88,29.72,4,0,4,0.00
2013-7-30,93,77,68,70,67,62,99,73,45,29.95,29.85,4,0,4,0.00
2013-7-31,85,75,71,74,71,70,98,89,67,29.88,29.72,5,0,5,0.37
2013-8-1,94,79,70,77,72,70,98,83,51,29.72,29.60,8,1,8,0.00
2013-8-2,100,81,69,74,71,66,99,75,41,29.76,29.64,4,0,4,0.00
2013-8-3,95,82,73,78,73,67,98,76,46,29.75,29.66,11,2,11,0.00
2013-8-4,99,81,71,72,69,64,95,71,36,29.75,29.65,7,1,7,0.00
2013-8-5,90,78,69,71,67,63,88,70,45,29.81,29.69,9,1,9,0.00
2013-8-6,78,73,67,72,70,67,99,89,74,29.78,29.70,9,2,9,0.44
2013-8-7,89,77,71,75,70,66,97,82,48,29.82,29.74,8,1,8,0.01
2013-8-8,92,79,72,77,73,70,99,83,56,29.79,29.72,8,1,8,0.00
2013-8-9,95,81,74,77,74,72,98,82,52,29.80,29.72,11,2,11,0.01
2013-8-10,98,80,72,78,74,71,99,85,49,29.83,29.76,12,2,12,0.00
2013-8-11,99,82,71,77,73,71,99,79,43,29.85,29.75,9,1,9,0.00
2013-8-12,99,82,73,76,73,70,99,77,43,29.79,29.67,8,1,8,0.00
2013-8-13,97,80,72,77,73,70,97,82,46,29.69,29.54,10,2,10,0.00
2013-8-14,89,76,65,73,65,58,96,71,40,29.80,29.59,5,1,5,0.00
2013-8-15,84,70,62,63,60,56,94,74,44,29.88,29.78,6,1,6,0.00
2013-8-16,80,67,62,65,60,58,93,81,52,29.89,29.80,4,1,4,0.00
2013-8-17,68,65,33,100,62,-40,99,91,1,30.02,29.87,4,0,4,0.27
2013-8-18,86,73,64,72,69,64,99,88,62,29.99,29.89,4,0,4,0.09
2013-8-19,88,72,68,75,70,68,99,93,62,29.94,29.86,3,0,3,0.63
2013-8-20,91,74,66,74,70,66,99,88,54,29.96,29.88,4,0,4,0.01
2013-8-21,89,77,70,77,72,70,99,87,62,29.99,29.86,8,1,8,0.00
2013-8-22,98,81,70,76,72,69,98,75,43,29.92,29.77,7,1,7,0.00
2013-8-23,95,76,70,75,71,66,98,85,45,29.85,29.73,10,1,10,0.15
2013-8-24,92,74,65,68,63,58,95,73,36,30.06,29.85,6,1,6,0.00
2013-8-25,90,72,60,66,62,60,99,74,40,30.15,30.04,7,1,7,0.00
2013-8-26,96,73,58,67,62,58,99,74,36,30.08,29.88,5,1,5,0.01
2013-8-27,97,79,66,72,68,64,97,72,44,29.90,29.75,7,1,7,0.00
2013-8-28,96,81,70,74,72,69,98,75,44,29.78,29.68,8,2,8,0.00
2013-8-29,104,84,75,76,73,71,91,71,38,29.76,29.66,5,1,5,0.00
2013-8-30,100,80,70,72,69,65,97,71,35,29.83,29.70,5,1,5,0.00
2013-8-31,95,78,70,76,71,67,96,80,48,29.74,29.64,10,1,10,0.00
2013-9-1,95,77,69,76,71,68,99,84,50,29.68,29.56,12,2,12,0.92
2013-9-2,97,79,70,76,72,69,99,82,46,29.68,29.57,6,1,6,0.00
2013-9-3,98,82,73,76,72,65,99,75,36,29.74,29.58,7,1,7,0.00
2013-9-4,99,78,66,68,65,61,91,66,34,29.87,29.74,4,1,4,0.00
2013-9-5,98,77,66,70,66,62,99,74,33,29.89,29.81,5,0,5,0.00
2013-9-6,96,77,67,69,63,60,92,64,35,29.96,29.84,8,1,8,0.00
2013-9-7,92,74,62,69,64,59,94,73,42,29.90,29.75,8,1,8,0.00
2013-9-8,97,80,67,72,67,64,97,70,37,30.00,29.69,4,1,4,0.00
2013-9-9,100,80,68,73,68,65,99,73,34,30.14,29.99,4,0,5,0.00
2013-9-10,100,82,69,74,69,66,98,71,36,30.22,30.09,4,0,6,0.00
2013-9-11,96,66,69,71,40,-100,94,58,40,30.21,30.04,4,-168,116,0.00
2013-9-12,99,77,72,73,62,-100,87,67,39,30.08,29.83,4,-41,9,0.01
2013-9-13,96,69,68,71,43,-100,89,55,31,29.93,29.74,4,-116,8,0.00
2013-9-14,90,70,58,58,54,50,86,61,33,30.14,29.92,2,0,8,0.00
2013-9-15,92,70,56,67,61,54,96,75,41,30.23,30.07,3,0,6,0.00
2013-9-16,98,78,65,70,65,61,97,69,33,30.16,30.01,3,0,5,0.00
2013-9-17,86,71,63,62,57,54,82,62,37,30.30,30.16,4,1,8,0.00
2013-9-18,86,69,58,59,55,52,85,64,37,30.32,30.15,3,0,4,0.00
2013-9-19,88,69,60,65,60,55,93,74,43,30.21,30.08,2,0,4,0.00
2013-9-20,98,75,64,69,64,-100,97,74,33,30.09,29.87,3,-8,4,0.00
2013-9-21,75,70,64,71,68,63,99,92,82,29.93,29.70,4,1,8,1.64
2013-9-22,89,70,59,63,58,55,98,73,33,29.92,29.70,4,0,5,0.07
2013-9-23,90,68,57,60,56,54,94,69,36,30.08,29.91,3,0,4,0.00
2013-9-24,91,70,59,62,59,56,95,71,34,30.10,29.90,2,0,4,0.00
2013-9-25,78,66,60,66,61,58,98,86,56,29.97,29.85,2,0,4,0.11
2013-9-26,88,69,57,62,58,53,98,72,35,30.05,29.88,3,0,7,0.00
2013-9-27,88,58,55,61,33,-100,97,60,34,30.19,30.05,3,-147,5,0.00
2013-9-28,83,51,54,58,18,-100,99,53,38,30.27,30.16,3,-235,4,0.00
2013-9-29,86,65,56,61,56,52,96,75,40,30.21,30.00,2,0,4,0.00
2013-9-30,90,67,53,62,56,52,99,72,32,30.12,29.97,3,0,5,0.00
2013-10-1,94,71,56,66,59,55,99,72,34,30.14,30.00,2,0,4,0.00
2013-10-2,96,72,59,69,62,58,99,74,33,30.17,30.04,3,0,4,0.00
2013-10-3,91,74,62,69,62,58,99,73,35,30.14,30.02,5,0,8,0.00
2013-10-4,97,76,61,68,64,60,99,72,34,30.15,30.02,4,0,6,0.00
2013-10-5,96,77,64,75,66,63,99,75,37,30.14,29.99,2,0,4,0.00
2013-10-6,93,76,64,68,64,62,98,72,41,30.05,29.87,4,0,8,0.00
2013-10-7,84,72,64,72,66,52,99,84,63,30.01,29.80,5,1,8,1.55
2013-10-8,76,64,58,53,50,45,74,61,39,30.22,30.00,4,1,8,0.00
2013-10-9,83,63,53,53,46,-100,83,60,32,30.24,30.10,4,-24,8,0.00
2013-10-10,80,65,54,63,56,49,86,73,55,30.15,29.96,3,0,5,0.00
2013-10-11,85,71,62,64,59,56,86,68,42,29.99,29.90,3,0,4,0.00
2013-10-12,79,42,60,65,3,-100,99,55,58,30.07,29.96,2,-364,3,0.00
2013-10-13,78,64,62,65,56,-100,95,82,65,30.22,30.06,6,-42,6,1.56
2013-10-14,75,65,60,63,60,58,98,86,65,30.25,30.14,2,0,4,0.02
2013-10-15,85,66,58,59,56,52,90,73,34,30.23,30.03,2,0,3,0.00
2013-10-16,81,66,54,62,58,53,99,78,51,30.10,29.94,3,0,6,0.00
2013-10-17,72,66,61,66,62,59,96,89,72,29.98,29.86,5,1,8,0.13
2013-10-18,81,65,55,65,56,50,97,77,40,30.05,29.90,2,0,3,0.00
2013-10-19,64,60,53,61,57,52,98,91,77,29.97,29.84,3,0,6,0.02
2013-10-20,78,58,47,54,45,38,98,68,27,30.13,29.93,2,0,4,0.01
2013-10-21,76,58,43,57,48,43,99,75,44,30.19,30.00,8,0,8,0.00
2013-10-22,73,63,57,59,56,53,97,78,53,30.02,29.80,4,0,7,0.00
2013-10-23,75,39,54,59,-4,-100,98,47,23,29.80,29.73,4,-365,7,0.00
2013-10-24,-200,0,200,-100,-100,-100,0,0,100,0.00,40.00,0,-999,0,0.00
2013-10-25,48,35,41,37,7,-100,79,56,66,30.32,30.22,2,-214,3,0.00
2013-11-5,54,47,52,49,31,-100,91,76,71,30.47,30.44,2,-113,3,0.00
2013-11-6,77,50,50,55,32,-100,98,72,45,30.45,30.13,2,-121,4,0.00
2013-11-7,80,34,49,61,-7,-100,99,56,45,30.13,29.92,4,-394,8,0.00
2013-11-8,71,26,37,35,-46,-100,76,14,15,30.37,30.21,4,-562,10,0.00
2013-11-9,63,36,33,44,1,-100,93,45,25,30.42,30.22,4,-231,7,0.00
2013-11-10,82,59,41,45,34,-100,90,46,14,30.27,30.08,4,-12,8,11.10
2013-11-11,72,51,34,36,30,23,78,47,17,30.39,30.18,3,0,5,0.00
2013-11-12,72,44,32,43,25,-100,92,60,21,30.52,30.07,5,-70,11,57.56
2013-11-13,47,10,30,24,-65,-100,77,18,28,30.58,30.49,98,-710,98,0.00
2013-11-14,45,9,28,25,-63,-100,85,22,42,30.53,30.37,2,-702,3,0.00
2013-11-15,-200,0,200,-100,-100,-100,0,0,100,0.00,40.00,0,-999,0,0.00
2013-11-16,-200,0,200,-100,-100,-100,0,0,100,0.00,40.00,0,-999,0,0.00
2013-11-17,-200,0,200,-100,-100,-100,0,0,100,0.00,40.00,0,-999,0,0.00
2013-11-18,-200,0,200,-100,-100,-100,0,0,100,0.00,40.00,0,-999,0,0.00
2013-11-19,-200,0,200,-100,-100,-100,0,0,100,0.00,40.00,0,-999,0,0.00
2013-11-20,-200,0,200,-100,-100,-100,0,0,100,0.00,40.00,0,-999,0,0.00
2013-11-21,-200,0,200,-100,-100,-100,0,0,100,0.00,40.00,0,-999,0,0.00
2013-11-22,-200,0,200,-100,-100,-100,0,0,100,0.00,40.00,0,-999,0,0.00
2013-11-23,51,10,42,28,-73,-100,47,9,34,29.36,29.27,2,-788,7,0.00
2013-11-24,44,35,28,23,10,3,51,37,20,29.68,29.36,3,0,12,0.00
2013-11-25,45,34,22,15,9,5,63,37,21,29.73,29.51,2,0,6,0.00
2013-11-26,45,37,32,44,33,12,98,86,33,29.51,28.76,3,0,6,2.35
2013-11-27,46,40,30,46,32,16,98,77,52,29.35,28.68,3,0,11,0.21
2013-11-28,47,33,24,25,20,15,82,60,33,29.63,29.35,2,0,4,0.00
2013-11-29,55,38,28,27,25,22,95,62,28,29.76,29.62,3,0,6,0.00
2013-11-30,50,36,29,27,24,22,82,63,36,29.80,29.53,2,-3,7,0.00
2013-12-1,60,41,28,38,32,25,94,74,40,29.53,29.18,3,0,7,0.00
2013-12-2,60,45,32,42,37,32,98,77,44,29.17,28.97,1,0,2,0.00
2013-12-3,60,52,43,52,46,38,95,81,66,29.10,29.00,3,0,8,0.01
2013-12-4,60,55,51,60,54,50,99,97,93,29.21,29.08,1,0,4,0.11
2013-12-5,66,63,60,65,62,59,99,98,95,29.24,29.14,4,0,10,0.12
2013-12-6,76,69,65,65,64,62,97,84,63,29.17,29.07,10,2,17,0.01
2013-12-7,70,54,46,64,49,39,98,83,68,29.55,29.10,6,1,13,0.12
2013-12-8,45,37,33,39,34,32,97,90,72,29.57,29.43,4,0,10,0.13
2013-12-9,45,40,34,45,39,33,99,98,97,29.43,29.20,4,0,6,0.43
2013-12-10,54,45,35,49,38,21,99,80,46,29.47,29.05,9,1,18,0.17
2013-12-11,52,39,27,30,26,23,95,64,33,29.60,29.44,7,1,10,0.00
2013-12-12,50,39,29,30,21,13,92,51,24,29.56,29.43,8,1,14,0.00
2013-12-13,52,38,26,30,24,18,87,59,32,29.53,29.41,6,1,10,0.00
2013-12-14,44,40,37,40,34,28,98,82,57,29.41,28.95,9,1,14,0.61
2013-12-15,53,43,38,42,36,28,99,77,49,29.25,28.89,8,2,16,0.02
2013-12-16,59,44,32,35,32,27,91,64,37,29.32,29.22,8,1,11,0.00
2013-12-17,62,50,36,37,34,26,83,56,37,29.27,29.04,12,2,23,0.00
2013-12-18,53,43,34,28,22,13,67,44,21,29.42,29.18,8,1,17,0.00
2013-12-19,63,47,32,30,25,18,75,46,20,29.47,29.36,8,-6,14,0.00
2013-12-20,63,53,43,51,42,29,86,68,47,29.38,29.27,10,1,17,0.00
2013-12-21,71,60,51,63,56,49,94,85,71,29.27,29.12,7,1,15,0.00
2013-12-22,72,66,62,69,65,61,100,94,87,29.19,29.10,9,2,20,0.74
2013-12-23,63,56,42,63,54,34,100,94,74,29.31,29.11,10,1,16,1.16
2013-12-24,46,38,28,36,26,14,84,63,39,29.61,29.30,9,2,16,0.00
2013-12-25,39,30,24,21,15,9,72,53,33,29.71,29.53,5,1,12,0.00
2013-12-26,53,38,28,32,24,18,87,59,34,29.54,29.41,3,0,7,0.00
2013-12-27,52,37,28,29,24,19,91,60,27,29.63,29.51,5,0,7,0.00
2013-12-28,54,40,28,41,32,25,98,76,36,29.57,29.22,3,-2,9,0.01
2013-12-29,57,45,40,50,42,39,98,90,69,29.24,28.91,9,1,14,0.95
2013-12-30,53,43,36,43,39,35,98,86,61,29.27,29.09,5,0,8,0.00
2013-12-31,50,42,34,37,30,22,97,64,33,29.51,29.24,7,0,14,0.00
2014-1-1,51,38,31,34,29,25,91,70,38,29.55,29.27,5,0,9,0.00
2014-1-2,46,41,31,45,35,18,97,80,56,29.27,28.79,13,2,25,0.25